Time;durP1;ratioP1;P1;durP2;ratioP2;P2;SDS_P1;SDS_P2;PMS_P1;PMS_P2;Temp;Humidity;BMP_temperature;BMP_pressure;BME280_temperature;BME280_humidity;BME280_pressure;Samples;Min_cycle;Max_cycle;Signal;HPM_P1;HPM_P2
2024/02/07 00:01:17;;;;;;;5.00;2.47;;;8.60;98.00;;;;;;4992677;28;20454;-67
2024/02/07 00:03:45;;;;;;;4.67;2.50;;;8.60;98.00;;;;;;4992821;28;20526;-68
2024/02/07 00:06:12;;;;;;;6.87;2.43;;;8.60;98.00;;;;;;4992500;28;21001;-67
2024/02/07 00:08:39;;;;;;;4.30;2.40;;;8.60;98.00;;;;;;4992499;28;20456;-68
2024/02/07 00:11:07;;;;;;;7.50;2.40;;;8.70;98.00;;;;;;4992935;28;20453;-68
2024/02/07 00:13:34;;;;;;;6.53;2.40;;;8.60;98.00;;;;;;4992442;28;20463;-68
2024/02/07 00:16:01;;;;;;;4.80;2.67;;;8.70;98.00;;;;;;4992667;28;20517;-68
2024/02/07 00:18:28;;;;;;;7.13;2.87;;;8.70;98.00;;;;;;4992414;28;20449;-67
2024/02/07 00:20:58;;;;;;;4.13;1.97;;;8.60;98.00;;;;;;4992486;28;20950;-68
2024/02/07 00:23:25;;;;;;;4.30;2.20;;;8.70;98.00;;;;;;4992404;28;20869;-68
2024/02/07 00:25:52;;;;;;;10.03;2.60;;;8.70;98.00;;;;;;4992429;28;20483;-68
2024/02/07 00:28:20;;;;;;;2.87;2.23;;;8.70;98.00;;;;;;4992469;28;20961;-67
2024/02/07 00:30:48;;;;;;;4.93;2.30;;;8.70;98.00;;;;;;4992170;28;20466;-67
2024/02/07 00:33:15;;;;;;;4.07;2.23;;;8.70;98.00;;;;;;4992646;28;20463;-67
2024/02/07 00:35:42;;;;;;;5.90;2.30;;;8.70;98.00;;;;;;4991318;28;20449;-68
2024/02/07 00:38:10;;;;;;;4.87;2.20;;;8.70;98.00;;;;;;4992169;28;20966;-67
2024/02/07 00:40:37;;;;;;;3.00;2.10;;;8.70;98.00;;;;;;4992265;28;20458;-68
2024/02/07 00:43:04;;;;;;;3.53;1.97;;;8.70;98.00;;;;;;4992502;28;20471;-68
2024/02/07 00:45:32;;;;;;;6.00;2.57;;;8.70;98.00;;;;;;4992342;28;20477;-68
2024/02/07 00:50:34;;;;;;;3.83;2.20;;;8.70;98.00;;;;;;5283285;22;20502;-66
2024/02/07 00:53:01;;;;;;;4.73;2.20;;;8.60;98.00;;;;;;4991837;28;20454;-67
2024/02/07 00:55:31;;;;;;;3.47;2.33;;;8.60;98.00;;;;;;4991840;28;20510;-66
2024/02/07 00:57:59;;;;;;;4.40;2.70;;;8.70;98.00;;;;;;4991617;28;20868;-67
2024/02/07 01:00:26;;;;;;;4.57;2.17;;;8.60;98.00;;;;;;4989252;28;20452;-66
2024/02/07 01:02:53;;;;;;;5.57;2.67;;;8.60;98.00;;;;;;4990105;28;20463;-66
2024/02/07 01:05:21;;;;;;;3.63;2.30;;;8.60;98.00;;;;;;4991634;28;20459;-66
2024/02/07 01:07:48;;;;;;;4.57;2.13;;;8.60;98.00;;;;;;4990203;28;20485;-66
2024/02/07 01:10:23;;;;;;;4.90;2.70;;;8.60;98.00;;;;;;4990402;28;20459;-66
2024/02/07 01:12:52;;;;;;;3.80;2.00;;;8.60;98.00;;;;;;4991456;28;20910;-67
2024/02/07 01:15:19;;;;;;;5.33;2.40;;;8.60;98.00;;;;;;4991606;28;20525;-66
2024/02/07 01:17:46;;;;;;;3.80;2.10;;;8.60;98.00;;;;;;4991484;28;20484;-67
2024/02/07 01:20:13;;;;;;;3.50;2.20;;;8.60;98.00;;;;;;4991519;28;20457;-67
2024/02/07 01:25:15;;;;;;;4.10;2.30;;;8.60;98.00;;;;;;5260911;22;20522;-66
2024/02/07 01:27:49;;;;;;;5.23;2.37;;;8.60;98.00;;;;;;4971783;28;20481;-66
2024/02/07 01:30:18;;;;;;;4.43;2.13;;;8.70;98.00;;;;;;4972182;28;20858;-67
2024/02/07 01:32:45;;;;;;;3.50;2.20;;;8.70;98.00;;;;;;4972277;28;20575;-66
2024/02/07 01:35:13;;;;;;;3.77;2.40;;;8.60;98.00;;;;;;4971028;28;20452;-66
2024/02/07 01:37:40;;;;;;;6.50;2.57;;;8.70;98.00;;;;;;4971827;28;20511;-66
2024/02/07 01:40:10;;;;;;;3.90;2.37;;;8.70;98.00;;;;;;4971864;28;21063;-66
2024/02/07 01:42:38;;;;;;;4.47;2.50;;;8.70;98.00;;;;;;4972673;28;20455;-66
2024/02/07 01:45:30;;;;;;;5.30;2.27;;;8.70;98.00;;;;;;4975439;28;20459;-67
2024/02/07 01:47:58;;;;;;;4.83;2.30;;;8.70;98.00;;;;;;4975282;28;20488;-66
2024/02/07 01:50:25;;;;;;;5.43;2.50;;;8.70;98.00;;;;;;4975120;28;20475;-67
2024/02/07 01:52:55;;;;;;;6.73;2.50;;;8.70;98.00;;;;;;4974975;28;20457;-67
2024/02/07 01:55:25;;;;;;;8.43;2.57;;;8.70;98.00;;;;;;4975002;28;20502;-67
2024/02/07 01:57:53;;;;;;;4.00;2.33;;;8.70;98.00;;;;;;4974863;28;20482;-66
2024/02/07 02:00:21;;;;;;;3.20;2.40;;;8.70;98.00;;;;;;4975060;28;20454;-66
2024/02/07 02:02:53;;;;;;;5.97;2.50;;;8.70;98.00;;;;;;4974845;28;20478;-67
2024/02/07 02:05:20;;;;;;;4.80;2.73;;;8.80;98.00;;;;;;4974824;28;20527;-67
2024/02/07 02:07:48;;;;;;;4.50;2.67;;;8.70;98.00;;;;;;4974723;28;20487;-66
2024/02/07 02:10:16;;;;;;;3.97;2.43;;;8.70;98.00;;;;;;4974824;28;20454;-66
2024/02/07 02:12:43;;;;;;;3.47;2.33;;;8.70;98.00;;;;;;4974616;28;20457;-66
2024/02/07 02:15:10;;;;;;;5.00;2.50;;;8.70;98.00;;;;;;4974686;28;20538;-67
2024/02/07 02:17:37;;;;;;;3.23;2.10;;;8.70;98.00;;;;;;4974525;28;20461;-66
2024/02/07 02:20:09;;;;;;;5.90;2.43;;;8.70;98.00;;;;;;4974582;28;20985;-66
2024/02/07 02:22:55;;;;;;;5.40;2.23;;;8.80;98.00;;;;;;4974506;28;20484;-67
2024/02/07 02:25:45;;;;;;;3.50;2.30;;;8.70;98.00;;;;;;4974288;28;20468;-67
2024/02/07 02:28:27;;;;;;;7.80;2.63;;;8.70;98.00;;;;;;4974194;28;20500;-67
2024/02/07 02:30:59;;;;;;;3.83;2.20;;;8.70;98.00;;;;;;4974676;28;20818;-66
2024/02/07 02:33:31;;;;;;;3.87;2.20;;;8.70;98.00;;;;;;4974323;28;20520;-67
2024/02/07 02:36:00;;;;;;;8.77;2.80;;;8.70;98.00;;;;;;4974338;28;20510;-67
2024/02/07 02:38:28;;;;;;;7.03;2.70;;;8.70;98.00;;;;;;4974157;28;20967;-66
2024/02/07 02:40:55;;;;;;;3.33;2.23;;;8.70;98.00;;;;;;4974292;28;20456;-66
2024/02/07 02:43:23;;;;;;;4.40;2.40;;;8.70;98.00;;;;;;4974140;28;20501;-66
2024/02/07 02:45:50;;;;;;;4.37;2.40;;;8.70;98.00;;;;;;4974098;28;20496;-66
2024/02/07 02:48:18;;;;;;;4.43;2.47;;;8.70;98.00;;;;;;4973796;28;20489;-65
2024/02/07 02:50:46;;;;;;;4.80;2.73;;;8.60;98.00;;;;;;4973997;28;20506;-66
2024/02/07 02:53:13;;;;;;;4.70;2.60;;;8.60;98.00;;;;;;4973794;28;20989;-66
2024/02/07 02:55:40;;;;;;;5.57;2.40;;;8.60;98.00;;;;;;4973814;28;20456;-67
2024/02/07 02:58:09;;;;;;;5.10;2.67;;;8.70;98.00;;;;;;4973905;28;20480;-67
2024/02/07 03:00:36;;;;;;;5.30;2.80;;;8.70;98.00;;;;;;4973907;28;20455;-67
2024/02/07 03:03:04;;;;;;;4.37;2.50;;;8.70;98.00;;;;;;4973553;28;20503;-66
2024/02/07 03:08:29;;;;;;;4.13;2.10;;;8.60;98.00;;;;;;4971608;28;20587;-66
2024/02/07 03:10:56;;;;;;;6.53;2.57;;;8.60;98.00;;;;;;4973677;28;20452;-66
2024/02/07 03:13:25;;;;;;;3.50;2.30;;;8.60;98.00;;;;;;4973532;28;20538;-66
2024/02/07 03:15:53;;;;;;;6.50;2.53;;;8.60;98.00;;;;;;4973695;28;20960;-67
2024/02/07 03:18:20;;;;;;;4.73;2.67;;;8.60;98.00;;;;;;4973606;28;20563;-66
2024/02/07 03:20:50;;;;;;;5.07;2.70;;;8.60;98.00;;;;;;4972475;28;20540;-66
2024/02/07 03:23:17;;;;;;;4.33;2.40;;;8.60;98.00;;;;;;4973876;28;20875;-66
2024/02/07 03:25:44;;;;;;;6.80;3.23;;;8.60;98.00;;;;;;4973333;28;20466;-66
2024/02/07 03:28:16;;;;;;;5.47;2.63;;;8.60;98.00;;;;;;4973357;28;21005;-66
2024/02/07 03:30:43;;;;;;;3.70;2.27;;;8.60;98.00;;;;;;4972333;28;20942;-66
2024/02/07 03:33:12;;;;;;;4.40;2.50;;;8.60;98.00;;;;;;4973393;28;20890;-66
2024/02/07 03:35:39;;;;;;;3.73;2.50;;;8.60;98.00;;;;;;4973085;28;20518;-66
2024/02/07 03:38:08;;;;;;;3.90;2.50;;;8.60;98.00;;;;;;4971518;28;20460;-66
2024/02/07 03:40:35;;;;;;;2.80;2.30;;;8.60;98.00;;;;;;4973257;28;20540;-66
2024/02/07 03:43:03;;;;;;;3.63;2.30;;;8.60;98.00;;;;;;4973189;28;20821;-66
2024/02/07 03:45:33;;;;;;;4.77;2.47;;;8.70;98.00;;;;;;4973250;28;20456;-66
2024/02/07 03:48:00;;;;;;;6.47;2.80;;;8.70;98.00;;;;;;5182975;23;20530;-66
2024/02/07 03:50:27;;;;;;;3.33;2.43;;;8.80;98.00;;;;;;5001363;28;20875;-66
2024/02/07 03:52:56;;;;;;;7.40;2.73;;;8.80;98.00;;;;;;5011903;28;20461;-67
2024/02/07 03:55:24;;;;;;;7.20;3.13;;;8.80;98.00;;;;;;5011799;28;20509;-66
2024/02/07 03:57:51;;;;;;;6.00;2.93;;;8.80;98.00;;;;;;5011537;28;20961;-66
2024/02/07 04:00:19;;;;;;;6.40;2.90;;;8.80;98.00;;;;;;5011918;28;20545;-66
2024/02/07 04:02:48;;;;;;;5.50;2.57;;;8.90;98.00;;;;;;5011739;28;20454;-66
2024/02/07 04:05:16;;;;;;;4.30;2.90;;;8.90;98.00;;;;;;5010912;28;20505;-66
2024/02/07 04:07:43;;;;;;;5.30;2.67;;;8.80;98.00;;;;;;5011663;28;20482;-66
2024/02/07 04:10:11;;;;;;;4.90;2.20;;;8.80;98.00;;;;;;5012002;28;20519;-67
2024/02/07 05:15:48;;;;;;;5.97;2.33;;;9.00;98.00;;;;;;4990621;28;20467;-66
2024/02/07 05:18:16;;;;;;;4.40;2.77;;;9.00;98.00;;;;;;4995394;28;20461;-66
2024/02/07 05:20:43;;;;;;;3.60;2.00;;;9.10;98.00;;;;;;4995467;28;20459;-66
2024/02/07 05:23:10;;;;;;;5.47;2.60;;;9.20;98.00;;;;;;4994782;28;20975;-66
2024/02/07 05:25:38;;;;;;;5.00;2.70;;;9.20;98.00;;;;;;4995252;28;20464;-66
2024/02/07 05:28:06;;;;;;;3.63;2.40;;;9.10;98.00;;;;;;4995050;28;20495;-66
2024/02/07 05:30:33;;;;;;;4.57;2.87;;;9.20;98.00;;;;;;4995059;28;20479;-66
2024/02/07 05:33:00;;;;;;;7.63;2.60;;;9.20;98.00;;;;;;4994801;28;20455;-66
2024/02/07 05:35:29;;;;;;;3.83;2.33;;;9.20;98.00;;;;;;4994915;28;21000;-67
2024/02/07 05:37:56;;;;;;;5.33;2.90;;;9.20;98.00;;;;;;4994811;28;20448;-67
2024/02/07 05:40:23;;;;;;;3.37;2.13;;;9.20;98.00;;;;;;4994863;28;20463;-66
2024/02/07 05:42:50;;;;;;;5.03;2.63;;;9.20;98.00;;;;;;4993949;28;20819;-66
2024/02/07 05:45:17;;;;;;;5.07;2.37;;;9.20;98.00;;;;;;4994375;28;20455;-67
2024/02/07 05:47:45;;;;;;;4.13;2.40;;;9.20;98.00;;;;;;4994481;28;20502;-66
2024/02/07 05:50:15;;;;;;;4.17;2.43;;;9.20;98.00;;;;;;4994607;28;20472;-66
2024/02/07 05:52:44;;;;;;;4.03;2.30;;;9.20;98.00;;;;;;4994004;28;20517;-67
2024/02/07 05:55:11;;;;;;;3.73;2.27;;;9.30;98.00;;;;;;4992906;28;20539;-66
2024/02/07 05:57:38;;;;;;;3.73;2.37;;;9.30;98.00;;;;;;4994223;28;20802;-67
2024/02/07 06:00:08;;;;;;;4.77;2.97;;;9.20;98.00;;;;;;4993234;28;20680;-66
2024/02/07 06:02:36;;;;;;;6.90;2.53;;;9.20;98.00;;;;;;4994294;28;20547;-66
2024/02/07 06:05:05;;;;;;;5.67;2.80;;;9.20;98.00;;;;;;4994390;28;20457;-67
2024/02/07 06:10:05;;;;;;;9.20;2.53;;;9.20;98.00;;;;;;5363487;23;20455;-67
2024/02/07 06:12:33;;;;;;;4.40;2.33;;;9.20;98.00;;;;;;4974708;28;20462;-65
2024/02/07 06:15:01;;;;;;;6.50;2.40;;;9.10;98.00;;;;;;4974824;28;20459;-65
2024/02/07 06:17:29;;;;;;;6.33;3.13;;;9.10;98.00;;;;;;4974739;28;20474;-65
2024/02/07 06:19:56;;;;;;;5.20;2.40;;;9.10;98.00;;;;;;4974730;28;20820;-65
2024/02/07 06:22:23;;;;;;;3.10;2.30;;;9.10;98.00;;;;;;4974363;28;20459;-65
2024/02/07 06:24:50;;;;;;;4.30;2.50;;;9.10;98.00;;;;;;4974648;28;20460;-65
2024/02/07 06:27:19;;;;;;;3.47;2.40;;;9.20;98.00;;;;;;4974302;28;20468;-66
2024/02/07 06:29:46;;;;;;;4.70;2.43;;;9.20;98.00;;;;;;4973832;28;20457;-66
2024/02/07 06:32:13;;;;;;;8.63;2.40;;;9.20;98.00;;;;;;4974401;28;20827;-66
2024/02/07 06:34:40;;;;;;;6.20;2.47;;;9.20;98.00;;;;;;4974375;28;20464;-66
2024/02/07 06:37:07;;;;;;;8.80;2.80;;;9.20;98.00;;;;;;4973052;28;20475;-66
2024/02/07 06:39:43;;;;;;;4.27;2.33;;;9.20;98.00;;;;;;4974319;28;20460;-66
2024/02/07 06:42:10;;;;;;;4.83;2.47;;;9.20;98.00;;;;;;4974296;28;20508;-65
2024/02/07 06:44:38;;;;;;;4.10;2.50;;;9.30;98.00;;;;;;4974230;28;20465;-65
2024/02/07 06:47:06;;;;;;;6.97;2.80;;;9.30;98.00;;;;;;4974096;28;20479;-65
2024/02/07 06:49:37;;;;;;;6.30;2.80;;;9.30;98.00;;;;;;4973981;28;20500;-65
2024/02/07 06:52:04;;;;;;;4.80;2.70;;;9.30;98.00;;;;;;4974230;28;20541;-65
2024/02/07 06:54:31;;;;;;;5.00;2.70;;;9.30;98.00;;;;;;4973345;28;20807;-65
2024/02/07 06:56:58;;;;;;;7.47;2.50;;;9.40;98.00;;;;;;4974050;28;20468;-66
2024/02/07 06:59:25;;;;;;;7.60;2.60;;;9.40;98.00;;;;;;4973929;28;20467;-65
2024/02/07 07:01:56;;;;;;;3.90;2.10;;;9.40;98.00;;;;;;4973950;28;20493;-61
2024/02/07 07:04:23;;;;;;;9.70;3.03;;;9.40;98.00;;;;;;4972952;28;20477;-62
2024/02/07 07:06:50;;;;;;;3.13;2.40;;;9.40;98.00;;;;;;4974299;28;20794;-62
2024/02/07 07:09:18;;;;;;;4.17;2.33;;;9.40;98.00;;;;;;4973977;28;20491;-62
2024/02/07 07:11:45;;;;;;;9.50;2.87;;;9.40;98.00;;;;;;4972627;28;20476;-62
2024/02/07 07:14:12;;;;;;;8.57;2.63;;;9.40;98.00;;;;;;4973852;28;20971;-62
2024/02/07 07:16:40;;;;;;;8.03;2.70;;;9.40;98.00;;;;;;4974107;28;20776;-62
2024/02/07 07:19:08;;;;;;;4.23;2.27;;;9.40;98.00;;;;;;4974310;28;20489;-62
2024/02/07 07:21:35;;;;;;;4.97;3.00;;;9.40;98.00;;;;;;4983722;28;20465;-61
2024/02/07 07:24:02;;;;;;;5.07;2.50;;;9.50;98.00;;;;;;4989065;28;20512;-62
2024/02/07 07:26:29;;;;;;;7.40;2.87;;;9.50;98.00;;;;;;4976646;28;20466;-61
2024/02/07 07:28:58;;;;;;;7.10;2.87;;;9.50;98.00;;;;;;4974015;28;21009;-62
2024/02/07 07:31:26;;;;;;;12.70;2.83;;;9.50;98.00;;;;;;4974030;28;20461;-61
2024/02/07 07:33:55;;;;;;;5.60;2.77;;;9.50;98.00;;;;;;4975174;28;20973;-61
2024/02/07 07:36:26;;;;;;;4.60;2.43;;;9.50;98.00;;;;;;4974573;28;20473;-62
2024/02/07 07:38:54;;;;;;;4.77;2.20;;;9.50;98.00;;;;;;4973557;28;20499;-61
2024/02/07 07:41:21;;;;;;;4.90;2.43;;;9.50;98.00;;;;;;4972563;28;20460;-61
2024/02/07 07:43:48;;;;;;;4.20;2.60;;;9.50;98.00;;;;;;4974718;28;20459;-61
2024/02/07 07:46:15;;;;;;;4.97;2.70;;;9.50;98.00;;;;;;4974424;28;20954;-61
2024/02/07 07:48:42;;;;;;;6.20;2.63;;;9.60;98.00;;;;;;4973706;28;20488;-61
2024/02/07 07:51:09;;;;;;;6.20;2.87;;;9.60;98.00;;;;;;4974258;28;20870;-62
2024/02/07 07:53:37;;;;;;;4.70;2.40;;;9.60;98.00;;;;;;4974245;28;20468;-61
2024/02/07 07:56:06;;;;;;;6.63;2.70;;;9.60;98.00;;;;;;4974354;28;20455;-62
2024/02/07 07:58:37;;;;;;;4.33;2.60;;;9.60;98.00;;;;;;4974134;28;20454;-61
2024/02/07 08:01:05;;;;;;;5.33;2.50;;;9.60;98.00;;;;;;4974387;28;20465;-62
2024/02/07 08:03:32;;;;;;;4.17;2.77;;;9.70;98.00;;;;;;4974690;28;20858;-61
2024/02/07 08:05:59;;;;;;;4.67;2.67;;;9.70;98.00;;;;;;4974247;28;20460;-61
2024/02/07 08:08:26;;;;;;;8.00;2.83;;;9.70;98.00;;;;;;4973815;28;20483;-62
2024/02/07 08:10:54;;;;;;;7.13;2.40;;;9.70;98.00;;;;;;4972832;28;20474;-61
2024/02/07 08:13:21;;;;;;;9.47;3.20;;;9.80;98.00;;;;;;4972979;28;20449;-62
2024/02/07 08:15:48;;;;;;;9.80;3.10;;;9.80;98.00;;;;;;4973615;28;20961;-62
2024/02/07 08:18:15;;;;;;;4.43;2.80;;;9.80;98.00;;;;;;4973637;28;20956;-61
2024/02/07 08:20:42;;;;;;;5.20;2.37;;;9.80;98.00;;;;;;4974014;28;20476;-62
2024/02/07 08:23:09;;;;;;;4.60;2.30;;;9.80;98.00;;;;;;4973178;28;20452;-62
2024/02/07 08:25:36;;;;;;;7.93;2.60;;;9.90;98.00;;;;;;4973036;28;20468;-61
2024/02/07 08:28:06;;;;;;;5.40;2.70;;;9.90;98.00;;;;;;4972404;28;20544;-61
2024/02/07 08:30:33;;;;;;;4.90;2.40;;;9.90;98.00;;;;;;4972637;28;20816;-62
2024/02/07 08:33:00;;;;;;;7.03;2.80;;;9.90;98.00;;;;;;4972957;28;20465;-61
2024/02/07 08:35:27;;;;;;;6.00;2.60;;;10.00;98.00;;;;;;4973234;28;20833;-62
2024/02/07 08:37:58;;;;;;;5.97;2.80;;;10.00;98.00;;;;;;4972526;28;20468;-61
2024/02/07 08:40:26;;;;;;;5.67;2.73;;;10.00;98.00;;;;;;4972460;28;20952;-62
2024/02/07 08:42:53;;;;;;;6.80;2.50;;;10.00;98.00;;;;;;4972604;28;20455;-61
2024/02/07 08:45:22;;;;;;;8.57;2.80;;;10.00;98.00;;;;;;4971157;28;20971;-62
2024/02/07 08:47:49;;;;;;;21.23;2.60;;;10.10;98.00;;;;;;4972291;28;20453;-62
2024/02/07 08:50:17;;;;;;;5.60;2.70;;;10.10;98.00;;;;;;4972870;28;20551;-62
2024/02/07 08:52:45;;;;;;;5.43;3.00;;;10.20;98.00;;;;;;4974507;28;20464;-62
2024/02/07 08:55:12;;;;;;;4.43;2.57;;;10.30;98.00;;;;;;4975756;28;20492;-62
2024/02/07 08:57:40;;;;;;;5.13;3.00;;;10.30;98.00;;;;;;4975929;28;20949;-63
2024/02/07 09:00:09;;;;;;;10.10;3.13;;;10.40;98.00;;;;;;4974814;28;20469;-63
2024/02/07 09:02:38;;;;;;;7.60;2.40;;;10.50;98.00;;;;;;4976113;28;20461;-62
2024/02/07 09:05:06;;;;;;;4.87;2.70;;;10.70;98.00;;;;;;4975907;28;20457;-61
2024/02/07 09:07:33;;;;;;;4.43;2.40;;;10.70;98.00;;;;;;4975238;28;20456;-61
2024/02/07 09:10:00;;;;;;;5.03;2.80;;;10.60;98.00;;;;;;4975881;28;20504;-61
2024/02/07 09:12:28;;;;;;;6.17;2.60;;;10.50;98.00;;;;;;4975726;28;20455;-61
2024/02/07 09:15:04;;;;;;;4.33;2.50;;;10.40;98.00;;;;;;4975769;28;20953;-61
2024/02/07 09:17:33;;;;;;;5.77;2.70;;;10.50;98.00;;;;;;4973985;28;20453;-61
2024/02/07 09:20:02;;;;;;;5.50;2.90;;;10.60;98.00;;;;;;4975555;28;20450;-61
2024/02/07 09:22:29;;;;;;;2.93;2.23;;;10.50;98.00;;;;;;4975471;28;20461;-61
2024/02/07 09:24:56;;;;;;;5.90;2.73;;;10.50;98.00;;;;;;4975871;28;20529;-61
2024/02/07 09:27:23;;;;;;;4.90;2.40;;;10.60;98.00;;;;;;4975560;28;20528;-61
2024/02/07 09:29:50;;;;;;;6.30;2.70;;;10.60;98.00;;;;;;4975631;28;20534;-61
2024/02/07 09:32:18;;;;;;;6.20;2.80;;;10.60;98.00;;;;;;4975550;28;20460;-61
2024/02/07 09:34:45;;;;;;;4.70;2.60;;;10.70;98.00;;;;;;4975407;28;20449;-61
2024/02/07 09:37:14;;;;;;;6.73;2.90;;;10.80;98.00;;;;;;4975438;28;20449;-61
2024/02/07 09:39:41;;;;;;;5.13;2.70;;;10.80;98.00;;;;;;4974217;28;20472;-62
2024/02/07 09:42:11;;;;;;;6.97;2.80;;;10.90;98.00;;;;;;4975624;28;20459;-62
2024/02/07 09:44:40;;;;;;;6.63;3.13;;;11.00;98.00;;;;;;4974227;28;20490;-62
2024/02/07 09:47:13;;;;;;;4.53;2.83;;;11.00;98.00;;;;;;4975287;28;20459;-62
2024/02/07 09:49:40;;;;;;;6.13;2.80;;;11.00;98.00;;;;;;4975513;28;20486;-62
2024/02/07 09:52:10;;;;;;;5.07;2.87;;;11.00;98.00;;;;;;4975443;28;20453;-62
2024/02/07 09:54:40;;;;;;;6.07;2.97;;;11.10;98.00;;;;;;4975274;28;20866;-62
2024/02/07 09:57:08;;;;;;;6.93;2.50;;;11.10;98.00;;;;;;4975123;28;20464;-62
2024/02/07 09:59:36;;;;;;;5.20;2.50;;;11.10;98.00;;;;;;4975048;28;20454;-63
2024/02/07 10:02:05;;;;;;;4.87;2.97;;;11.20;98.00;;;;;;4975027;28;20458;-63
2024/02/07 10:04:38;;;;;;;5.70;2.90;;;11.10;98.00;;;;;;4974285;28;21028;-62
2024/02/07 10:07:10;;;;;;;6.43;3.20;;;11.10;98.00;;;;;;4975158;28;20457;-62
2024/02/07 10:09:40;;;;;;;8.37;2.60;;;11.20;98.00;;;;;;4974716;28;20513;-63
2024/02/07 10:12:10;;;;;;;6.07;2.90;;;11.20;98.00;;;;;;4974768;28;20468;-63
2024/02/07 10:14:38;;;;;;;3.67;2.43;;;11.20;98.00;;;;;;4975854;28;20453;-63
2024/02/07 10:17:05;;;;;;;4.80;2.60;;;11.30;98.00;;;;;;4975075;28;20457;-62
2024/02/07 10:19:33;;;;;;;4.63;2.80;;;11.20;98.00;;;;;;4974786;28;20489;-63
2024/02/07 10:22:00;;;;;;;3.60;2.43;;;11.30;98.00;;;;;;4975574;28;20540;-63
2024/02/07 10:24:29;;;;;;;6.30;2.77;;;11.40;98.00;;;;;;4975476;28;20828;-63
2024/02/07 10:26:58;;;;;;;3.97;2.23;;;11.40;98.00;;;;;;4975649;28;20508;-62
2024/02/07 10:29:25;;;;;;;4.53;2.47;;;11.40;98.00;;;;;;4973541;28;20583;-63
2024/02/07 10:31:53;;;;;;;5.00;2.63;;;11.40;98.00;;;;;;4974921;28;20820;-62
2024/02/07 10:34:21;;;;;;;6.70;2.80;;;11.50;98.00;;;;;;4974455;28;21002;-63
2024/02/07 10:36:57;;;;;;;3.57;2.50;;;11.50;98.00;;;;;;4973981;28;20550;-63
2024/02/07 10:39:24;;;;;;;5.20;2.53;;;11.50;98.00;;;;;;4973437;28;20452;-62
2024/02/07 10:41:51;;;;;;;3.37;2.40;;;11.60;98.00;;;;;;4973614;28;20461;-62
2024/02/07 10:44:19;;;;;;;3.53;2.37;;;11.60;98.00;;;;;;4973875;28;20464;-62
2024/02/07 10:46:46;;;;;;;3.37;2.10;;;11.60;98.00;;;;;;4973794;28;20823;-62
2024/02/07 10:49:13;;;;;;;4.87;2.37;;;11.60;98.00;;;;;;4972875;28;21007;-62
2024/02/07 10:51:41;;;;;;;3.97;2.70;;;11.60;98.00;;;;;;4974060;28;20784;-63
2024/02/07 10:54:09;;;;;;;4.70;2.40;;;11.60;98.00;;;;;;4974079;28;20490;-62
2024/02/07 10:56:51;;;;;;;6.80;2.33;;;11.60;98.00;;;;;;4974361;28;20488;-62
2024/02/07 10:59:20;;;;;;;5.17;2.80;;;11.50;98.00;;;;;;5179059;22;20590;-64
2024/02/07 11:01:48;;;;;;;3.47;2.40;;;11.50;98.00;;;;;;4972719;28;20645;-64
2024/02/07 11:04:15;;;;;;;4.43;2.47;;;11.50;98.00;;;;;;4973535;28;20463;-64
2024/02/07 11:06:43;;;;;;;3.80;2.40;;;11.50;98.00;;;;;;4973975;28;20466;-64
2024/02/07 11:09:12;;;;;;;4.83;2.70;;;11.60;98.00;;;;;;4973581;28;20532;-64
2024/02/07 11:11:39;;;;;;;4.33;2.53;;;11.50;98.00;;;;;;4972502;28;20461;-65
2024/02/07 11:14:07;;;;;;;4.67;2.43;;;11.50;98.00;;;;;;4973444;28;20467;-65
2024/02/07 11:16:36;;;;;;;4.77;2.33;;;11.50;98.00;;;;;;4973687;28;20472;-65
2024/02/07 11:19:03;;;;;;;10.60;2.43;;;11.50;98.00;;;;;;4973676;28;20484;-64
2024/02/07 11:21:57;;;;;;;2.93;2.07;;;11.50;98.00;;;;;;4973590;28;20520;-64
2024/02/07 11:24:25;;;;;;;4.00;2.50;;;11.60;98.00;;;;;;4973567;28;20455;-64
2024/02/07 11:26:52;;;;;;;4.33;2.30;;;11.60;98.00;;;;;;4973704;28;21011;-64
2024/02/07 11:29:19;;;;;;;3.77;2.50;;;11.60;98.00;;;;;;4973494;28;20849;-64
2024/02/07 11:31:48;;;;;;;4.43;2.70;;;11.60;98.00;;;;;;4973499;28;20517;-64
2024/02/07 11:34:16;;;;;;;3.83;2.30;;;11.60;98.00;;;;;;4973417;28;20463;-65
2024/02/07 11:36:53;;;;;;;4.67;2.60;;;11.60;98.00;;;;;;4973219;28;20465;-64
2024/02/07 11:39:22;;;;;;;4.60;2.40;;;11.70;98.00;;;;;;4973296;28;20475;-64
2024/02/07 11:41:51;;;;;;;11.73;2.60;;;11.60;98.00;;;;;;4973193;28;20462;-64
2024/02/07 11:44:23;;;;;;;3.03;2.20;;;11.70;98.00;;;;;;4972983;28;20463;-64
2024/02/07 11:46:54;;;;;;;5.37;2.20;;;11.60;98.00;;;;;;4973231;28;20470;-64
2024/02/07 11:49:28;;;;;;;5.10;2.60;;;11.60;98.00;;;;;;4973099;28;21116;-64
2024/02/07 11:51:59;;;;;;;4.27;2.37;;;11.60;98.00;;;;;;4973115;28;20465;-64
2024/02/07 11:54:31;;;;;;;4.50;2.50;;;11.60;98.00;;;;;;4973185;28;21008;-64
2024/02/07 11:56:59;;;;;;;3.93;2.30;;;11.50;98.00;;;;;;4973679;28;21029;-64
2024/02/07 11:59:28;;;;;;;5.87;2.43;;;11.50;98.00;;;;;;4973277;28;20475;-64
2024/02/07 12:01:56;;;;;;;3.23;2.20;;;11.50;98.00;;;;;;4973650;28;20453;-64
2024/02/07 12:04:26;;;;;;;4.17;2.20;;;11.50;98.00;;;;;;4973181;28;20511;-64
2024/02/07 12:06:53;;;;;;;4.50;2.30;;;11.60;98.00;;;;;;4972975;28;20888;-64
2024/02/07 12:09:24;;;;;;;1.97;1.90;;;11.60;98.00;;;;;;4972580;28;20491;-64
2024/02/07 12:11:51;;;;;;;4.80;2.10;;;11.60;98.00;;;;;;4972847;28;20447;-65
2024/02/07 12:14:18;;;;;;;3.97;2.10;;;11.60;98.00;;;;;;4972614;28;20460;-64
2024/02/07 12:16:46;;;;;;;6.40;2.17;;;11.60;98.00;;;;;;4971342;28;20454;-65
2024/02/07 12:19:15;;;;;;;3.43;2.37;;;11.60;98.00;;;;;;4971227;28;20460;-64
2024/02/07 12:21:43;;;;;;;2.60;2.13;;;11.60;98.00;;;;;;4972438;28;20461;-64
2024/02/07 12:24:10;;;;;;;4.40;2.20;;;11.60;98.00;;;;;;4972563;28;20453;-64
2024/02/07 12:26:38;;;;;;;4.03;2.10;;;11.60;98.00;;;;;;4971994;28;20544;-64
2024/02/07 12:29:06;;;;;;;3.57;2.20;;;11.70;98.00;;;;;;4970892;28;20502;-64
2024/02/07 12:31:33;;;;;;;3.07;1.93;;;11.70;98.00;;;;;;4972281;28;20502;-64
2024/02/07 12:34:00;;;;;;;3.07;2.23;;;11.80;98.00;;;;;;4972346;28;20461;-64
2024/02/07 12:36:30;;;;;;;3.00;2.13;;;11.90;98.00;;;;;;4972476;28;20486;-64
2024/02/07 12:38:57;;;;;;;3.77;2.30;;;12.00;98.00;;;;;;4972209;28;20458;-64
2024/02/07 12:41:24;;;;;;;2.27;1.80;;;12.00;98.00;;;;;;4971145;28;20467;-64
2024/02/07 12:43:51;;;;;;;2.60;1.80;;;11.90;98.00;;;;;;4972307;28;20458;-64
2024/02/07 12:46:18;;;;;;;3.27;1.97;;;11.80;98.00;;;;;;4971113;28;20961;-64
2024/02/07 12:48:45;;;;;;;3.17;1.90;;;11.80;98.00;;;;;;4972006;28;20452;-64
2024/02/07 12:51:12;;;;;;;2.37;1.77;;;11.70;98.00;;;;;;4972529;28;20484;-64
2024/02/07 12:53:42;;;;;;;3.20;1.60;;;11.70;98.00;;;;;;4971993;28;20450;-64
2024/02/07 12:56:17;;;;;;;3.30;2.10;;;11.70;98.00;;;;;;4971205;28;20591;-64
2024/02/07 12:58:45;;;;;;;3.90;2.20;;;11.70;98.00;;;;;;4971933;28;20512;-65
2024/02/07 13:01:13;;;;;;;4.90;1.90;;;11.70;98.00;;;;;;4972481;28;20496;-64
2024/02/07 13:03:42;;;;;;;2.87;2.00;;;11.70;98.00;;;;;;4970953;28;20821;-64
2024/02/07 13:06:09;;;;;;;2.83;2.00;;;11.70;98.00;;;;;;4972322;28;20803;-64
2024/02/07 13:08:36;;;;;;;3.00;1.87;;;11.80;98.00;;;;;;4972123;28;20467;-64
2024/02/07 13:11:05;;;;;;;4.00;2.10;;;11.80;98.00;;;;;;4971806;28;20486;-64
2024/02/07 13:13:32;;;;;;;2.73;2.00;;;11.80;98.00;;;;;;4972152;28;20463;-64
2024/02/07 13:15:59;;;;;;;2.70;1.70;;;11.70;98.00;;;;;;4972562;28;20468;-65
2024/02/07 13:18:26;;;;;;;2.57;1.80;;;11.70;98.00;;;;;;4972243;28;20464;-64
2024/02/07 13:20:54;;;;;;;3.07;1.90;;;11.70;98.00;;;;;;4971351;28;20578;-64
2024/02/07 13:23:21;;;;;;;2.53;1.93;;;11.70;98.00;;;;;;4970505;28;20460;-64
2024/02/07 13:25:50;;;;;;;2.70;1.90;;;11.70;98.00;;;;;;4971907;28;20456;-64
2024/02/07 13:28:18;;;;;;;4.07;2.10;;;11.60;98.00;;;;;;4971908;28;20457;-65
2024/02/07 13:30:45;;;;;;;2.30;1.90;;;11.60;98.00;;;;;;4972041;28;21059;-65
2024/02/07 13:33:12;;;;;;;4.77;2.17;;;11.60;98.00;;;;;;4971957;28;20458;-64
2024/02/07 13:35:40;;;;;;;6.00;2.17;;;11.50;98.00;;;;;;4970578;28;20494;-64
2024/02/07 13:38:07;;;;;;;3.37;2.10;;;11.50;98.00;;;;;;4972600;28;20463;-64
2024/02/07 13:40:34;;;;;;;3.70;2.17;;;11.40;98.00;;;;;;4974083;28;20461;-64
2024/02/07 13:43:01;;;;;;;3.10;2.37;;;11.30;98.00;;;;;;4975549;28;20456;-64
2024/02/07 13:45:30;;;;;;;3.50;2.63;;;11.20;98.00;;;;;;4975464;28;20972;-64
2024/02/07 13:47:57;;;;;;;3.50;2.13;;;11.20;98.00;;;;;;4975161;28;20449;-65
2024/02/07 13:50:24;;;;;;;5.40;2.67;;;11.20;98.00;;;;;;4975212;28;20516;-64
2024/02/07 13:52:51;;;;;;;3.63;2.17;;;11.20;98.00;;;;;;4976021;28;20863;-64
2024/02/07 13:55:18;;;;;;;2.80;2.00;;;11.20;98.00;;;;;;4975467;28;20876;-64
2024/02/07 13:57:45;;;;;;;3.80;2.37;;;11.20;98.00;;;;;;4976057;28;20465;-64
2024/02/07 14:00:15;;;;;;;7.73;2.57;;;11.10;98.00;;;;;;4975369;28;20530;-64
2024/02/07 14:02:44;;;;;;;2.93;1.97;;;11.10;98.00;;;;;;4975037;28;20462;-65
2024/02/07 14:05:12;;;;;;;3.47;2.13;;;11.00;98.00;;;;;;4975172;28;20450;-64
2024/02/07 14:07:39;;;;;;;4.00;2.40;;;11.00;98.00;;;;;;4974816;28;20466;-64
2024/02/07 14:10:07;;;;;;;4.77;2.40;;;11.00;98.00;;;;;;4974717;28;20488;-64
2024/02/07 14:12:34;;;;;;;4.83;2.50;;;10.90;98.00;;;;;;4974816;28;20988;-65